createdAt,value
2019-04-01T00:00:55.009Z,4.90
2019-04-01T00:01:55.082Z,4.80
2019-04-01T00:02:55.310Z,5.30
2019-04-01T00:03:55.529Z,4.80
2019-04-01T00:04:55.507Z,4.70
2019-04-01T00:05:55.693Z,5.20
2019-04-01T00:06:55.858Z,5.20
2019-04-01T00:07:56.094Z,4.40
2019-04-01T00:08:56.176Z,5.10
2019-04-01T00:09:56.379Z,5.30
2019-04-01T00:10:56.637Z,4.70
2019-04-01T00:11:56.708Z,5.00
2019-04-01T00:12:56.904Z,4.50
2019-04-01T00:13:57.329Z,4.80
2019-04-01T00:14:57.359Z,4.70
2019-04-01T00:15:57.495Z,4.40
2019-04-01T00:16:57.703Z,4.60
2019-04-01T00:17:57.905Z,4.50
2019-04-01T00:19:03.348Z,5.10
2019-04-01T00:19:58.216Z,4.40
2019-04-01T00:20:58.274Z,4.40
2019-04-01T00:21:58.501Z,4.10
2019-04-01T00:22:58.637Z,4.30
2019-04-01T00:23:58.844Z,4.30
2019-04-01T00:24:58.956Z,4.40
2019-04-01T00:25:59.022Z,4.30
2019-04-01T00:26:59.274Z,4.40
2019-04-01T00:27:59.352Z,4.40
2019-04-01T00:28:59.546Z,4.20
2019-04-01T00:29:59.776Z,3.80
2019-04-01T00:30:59.879Z,4.30
2019-04-01T00:32:00.056Z,3.70
2019-04-01T00:33:00.332Z,4.10
2019-04-01T00:34:00.357Z,4.30
2019-04-01T00:35:00.640Z,4.00
2019-04-01T00:36:00.718Z,3.70
2019-04-01T00:37:01.059Z,3.70
2019-04-01T00:38:01.086Z,4.20
2019-04-01T00:39:01.317Z,3.40
2019-04-01T00:40:01.720Z,4.30
2019-04-01T00:41:01.555Z,3.90
2019-04-01T00:42:01.749Z,3.60
2019-04-01T00:43:01.953Z,4.00
2019-04-01T00:44:02.117Z,3.50
2019-04-01T00:45:02.305Z,3.50
2019-04-01T00:46:02.567Z,3.50
2019-04-01T00:47:02.648Z,3.90
2019-04-01T00:48:02.865Z,3.50
2019-04-01T00:49:02.990Z,3.40
2019-04-01T00:50:03.023Z,3.60
2019-04-01T00:51:03.243Z,3.80
2019-04-01T00:52:03.432Z,3.30
2019-04-01T00:53:03.622Z,3.30
2019-04-01T00:54:03.832Z,3.00
2019-04-01T00:55:03.936Z,3.20
2019-04-01T00:56:04.088Z,3.80
2019-04-01T00:57:04.129Z,3.80
2019-04-01T00:58:04.385Z,3.20
2019-04-01T00:59:04.422Z,3.70
2019-04-01T01:00:04.688Z,3.40
2019-04-01T01:01:04.806Z,3.60
2019-04-01T01:02:05.004Z,3.40
2019-04-01T01:03:05.242Z,3.20
2019-04-01T01:04:05.304Z,3.00
2019-04-01T01:05:05.484Z,3.50
2019-04-01T01:06:05.686Z,3.20
2019-04-01T01:07:05.847Z,2.80
2019-04-01T01:08:05.920Z,2.90
2019-04-01T01:09:06.122Z,3.30
2019-04-01T01:10:06.313Z,3.10
2019-04-01T01:11:06.490Z,2.80
2019-04-01T01:12:06.693Z,3.20
2019-04-01T01:13:06.910Z,2.90
2019-04-01T01:14:07.089Z,2.90
2019-04-01T01:15:07.265Z,2.80
2019-04-01T01:16:07.453Z,2.60
2019-04-01T01:17:07.545Z,3.00
2019-04-01T01:18:07.739Z,3.00
2019-04-01T01:19:07.867Z,2.80
2019-04-01T01:20:07.993Z,2.80
2019-04-01T01:21:08.084Z,3.10
2019-04-01T01:22:08.162Z,3.00
2019-04-01T01:23:08.390Z,2.70
2019-04-01T01:24:08.584Z,2.80
2019-04-01T01:25:08.631Z,2.50
2019-04-01T01:26:08.898Z,2.70
2019-04-01T01:27:09.032Z,2.90
2019-04-01T01:28:09.078Z,2.70
2019-04-01T01:29:09.269Z,2.70
2019-04-01T01:30:09.392Z,2.40
2019-04-01T01:31:09.597Z,3.20
2019-04-01T01:32:09.824Z,2.70
2019-04-01T01:33:09.990Z,2.60
2019-04-01T01:34:10.229Z,2.70
2019-04-01T01:35:10.287Z,2.60
2019-04-01T01:36:10.478Z,2.80
2019-04-01T01:37:10.594Z,2.70
2019-04-01T01:38:10.802Z,2.30
2019-04-01T01:39:11.033Z,2.60
2019-04-01T01:40:11.106Z,2.40
2019-04-01T01:41:11.297Z,2.20
2019-04-01T01:42:11.515Z,2.30
2019-04-01T01:43:11.671Z,2.60
2019-04-01T01:44:11.770Z,2.40
2019-04-01T01:45:11.938Z,2.30
2019-04-01T01:46:12.144Z,2.30
2019-04-01T01:47:12.266Z,2.60
2019-04-01T01:48:12.403Z,2.20
2019-04-01T01:49:12.559Z,2.30
2019-04-01T01:50:12.745Z,2.30
2019-04-01T01:51:13.820Z,2.40
2019-04-01T01:52:13.142Z,2.20
2019-04-01T01:53:13.361Z,2.20
2019-04-01T01:54:13.582Z,2.70
2019-04-01T01:55:13.787Z,2.30
2019-04-01T01:56:13.825Z,2.40
2019-04-01T01:57:14.045Z,2.20
2019-04-01T01:58:14.223Z,2.20
2019-04-01T01:59:14.438Z,2.50
2019-04-01T02:00:14.597Z,2.10
2019-04-01T02:01:14.802Z,2.50
2019-04-01T02:02:15.018Z,2.10
2019-04-01T02:03:15.190Z,2.00
2019-04-01T02:04:15.245Z,2.10
2019-04-01T02:05:17.221Z,2.00
2019-04-01T02:06:15.653Z,2.30
2019-04-01T02:07:15.903Z,2.20
2019-04-01T02:08:15.996Z,2.20
2019-04-01T02:09:16.243Z,2.40
2019-04-01T02:10:16.358Z,2.20
2019-04-01T02:11:16.464Z,2.10
2019-04-01T02:12:16.587Z,2.00
2019-04-01T02:13:16.657Z,2.10
2019-04-01T02:14:16.821Z,2.20
2019-04-01T02:15:16.910Z,2.10
2019-04-01T02:16:17.106Z,1.80
2019-04-01T02:17:17.336Z,2.20
2019-04-01T02:18:17.583Z,2.50
2019-04-01T02:19:17.678Z,2.00
2019-04-01T02:20:17.858Z,1.90
2019-04-01T02:21:18.077Z,2.20
2019-04-01T02:22:18.178Z,1.80
2019-04-01T02:23:19.450Z,2.00
2019-04-01T02:24:18.578Z,1.80
2019-04-01T02:25:18.661Z,1.90
2019-04-01T02:26:18.963Z,1.80
2019-04-01T02:27:19.082Z,2.20
2019-04-01T02:28:19.268Z,2.20
2019-04-01T02:29:19.441Z,2.20
2019-04-01T02:30:19.636Z,2.40
2019-04-01T02:31:19.864Z,2.10
2019-04-01T02:32:20.030Z,1.80
2019-04-01T02:33:22.390Z,1.70
2019-04-01T02:34:24.458Z,2.00
2019-04-01T02:35:23.084Z,2.60
2019-04-01T02:36:24.384Z,2.00
2019-04-01T02:37:21.835Z,1.90
2019-04-01T02:38:22.970Z,2.00
2019-04-01T02:39:21.137Z,2.00
2019-04-01T02:40:22.536Z,1.90
2019-04-01T02:41:21.431Z,1.60
2019-04-01T02:42:22.506Z,1.90
2019-04-01T02:43:21.857Z,1.60
2019-04-01T02:44:22.095Z,2.30
2019-04-01T02:45:22.243Z,1.80
2019-04-01T02:46:22.404Z,2.10
2019-04-01T02:47:23.190Z,2.10
2019-04-01T02:48:23.882Z,2.20
2019-04-01T02:49:25.070Z,1.80
2019-04-01T02:50:23.165Z,1.90
2019-04-01T02:51:23.324Z,2.10
2019-04-01T02:52:23.542Z,1.90
2019-04-01T02:53:23.777Z,2.40
2019-04-01T02:54:23.939Z,2.20
2019-04-01T02:55:24.029Z,2.00
2019-04-01T02:56:24.179Z,1.90
2019-04-01T02:57:24.525Z,2.50
2019-04-01T02:58:25.412Z,1.80
2019-04-01T02:59:24.613Z,1.90
2019-04-01T03:00:24.791Z,2.10
2019-04-01T03:01:24.828Z,1.90
2019-04-01T03:02:25.081Z,1.90
2019-04-01T03:03:25.140Z,2.00
2019-04-01T03:04:25.357Z,1.90
2019-04-01T03:05:25.590Z,2.00
2019-04-01T03:06:25.705Z,1.70
2019-04-01T03:07:25.845Z,1.80
2019-04-01T03:08:26.075Z,1.90
2019-04-01T03:09:26.209Z,1.80
2019-04-01T03:10:26.417Z,1.90
2019-04-01T03:11:26.655Z,1.90
2019-04-01T03:12:27.695Z,1.90
2019-04-01T03:13:26.949Z,1.90
2019-04-01T03:14:27.012Z,1.90
2019-04-01T03:15:27.181Z,1.90
2019-04-01T03:16:28.046Z,1.80
2019-04-01T03:17:28.366Z,1.70
2019-04-01T03:18:28.744Z,1.80
2019-04-01T03:19:28.746Z,2.00
2019-04-01T03:20:29.142Z,1.90
2019-04-01T03:21:30.381Z,2.00
2019-04-01T03:22:28.789Z,2.40
2019-04-01T03:23:28.764Z,2.50
2019-04-01T03:24:29.358Z,1.80
2019-04-01T03:25:29.977Z,2.00
2019-04-01T03:26:32.339Z,2.10
2019-04-01T03:27:28.930Z,1.80
2019-04-01T03:28:29.624Z,2.00
2019-04-01T03:29:31.536Z,2.40
2019-04-01T03:30:30.477Z,1.90
2019-04-01T03:31:29.502Z,2.00
2019-04-01T03:32:32.955Z,1.90
2019-04-01T03:33:30.063Z,1.90
2019-04-01T03:34:30.487Z,2.50
2019-04-01T03:35:34.285Z,2.30
2019-04-01T03:36:32.307Z,2.00
2019-04-01T03:37:32.104Z,2.40
2019-04-01T03:38:30.676Z,1.90
2019-04-01T03:39:30.837Z,1.60
2019-04-01T03:40:30.940Z,2.20
2019-04-01T03:41:31.100Z,2.00
2019-04-01T03:42:35.053Z,2.10
2019-04-01T03:43:35.364Z,1.80
2019-04-01T03:44:34.655Z,1.90
2019-04-01T03:45:31.745Z,2.10
2019-04-01T03:46:31.912Z,2.50
2019-04-01T03:47:32.189Z,2.10
2019-04-01T03:48:32.198Z,1.80
2019-04-01T03:49:32.377Z,1.90
2019-04-01T03:50:32.540Z,1.80
2019-04-01T03:51:32.709Z,1.70
2019-04-01T03:52:32.760Z,2.00
2019-04-01T03:53:33.003Z,2.30
2019-04-01T03:54:33.256Z,2.10
2019-04-01T03:55:33.330Z,1.90
2019-04-01T03:56:33.613Z,1.80
2019-04-01T03:57:33.772Z,1.60
2019-04-01T03:58:33.838Z,2.20
2019-04-01T03:59:34.031Z,1.90
2019-04-01T04:00:34.359Z,1.90
2019-04-01T04:01:34.423Z,2.30
2019-04-01T04:02:34.702Z,1.90
2019-04-01T04:03:34.738Z,1.90
2019-04-01T04:04:35.112Z,1.90
2019-04-01T04:05:35.100Z,1.70
2019-04-01T04:06:35.261Z,1.90
2019-04-01T04:07:35.566Z,2.00
2019-04-01T04:08:40.261Z,2.20
2019-04-01T04:09:39.922Z,2.00
2019-04-01T04:10:36.042Z,1.90
2019-04-01T04:11:36.076Z,2.00
2019-04-01T04:12:36.135Z,3.20
2019-04-01T04:13:36.238Z,1.90
2019-04-01T04:14:36.657Z,1.80
2019-04-01T04:15:36.582Z,1.70
2019-04-01T04:16:36.766Z,1.90
2019-04-01T04:17:36.869Z,1.90
2019-04-01T04:18:37.050Z,2.00
2019-04-01T04:19:37.126Z,2.00
2019-04-01T04:20:38.073Z,1.90
2019-04-01T04:21:37.496Z,2.00
2019-04-01T04:22:37.937Z,2.30
2019-04-01T04:23:37.818Z,2.60
2019-04-01T04:24:38.071Z,1.90
2019-04-01T04:25:38.120Z,1.70
2019-04-01T04:26:39.881Z,2.10
2019-04-01T04:27:38.553Z,2.10
2019-04-01T04:28:38.788Z,1.70
2019-04-01T04:29:38.935Z,1.60
2019-04-01T04:30:39.143Z,2.00
2019-04-01T04:31:39.208Z,1.70
2019-04-01T04:32:42.369Z,1.90
2019-04-01T04:33:39.548Z,2.20
2019-04-01T04:34:39.723Z,2.00
2019-04-01T04:35:39.746Z,2.20
2019-04-01T04:36:40.011Z,2.00
2019-04-01T04:37:40.043Z,1.80
2019-04-01T04:38:40.611Z,1.90
2019-04-01T04:39:40.577Z,1.60
2019-04-01T04:40:41.594Z,2.20
2019-04-01T04:41:40.834Z,2.50
2019-04-01T04:42:41.034Z,1.90
2019-04-01T04:43:41.250Z,1.90
2019-04-01T04:44:41.446Z,2.10
2019-04-01T04:45:41.642Z,1.90
2019-04-01T04:46:41.792Z,1.80
2019-04-01T04:47:42.018Z,1.70
2019-04-01T04:48:42.194Z,1.80
2019-04-01T04:49:42.365Z,2.20
2019-04-01T04:50:42.531Z,2.00
2019-04-01T04:51:42.706Z,1.70
2019-04-01T04:52:42.913Z,1.60
2019-04-01T04:53:43.079Z,1.60
2019-04-01T04:54:43.149Z,1.90
2019-04-01T04:55:44.245Z,2.00
2019-04-01T04:56:43.999Z,1.60
2019-04-01T04:57:44.233Z,1.80
2019-04-01T04:58:44.337Z,1.90
2019-04-01T04:59:44.586Z,1.90
2019-04-01T05:00:44.330Z,1.80
2019-04-01T05:01:45.345Z,1.70
2019-04-01T05:02:44.456Z,1.80
2019-04-01T05:03:44.582Z,1.70
2019-04-01T05:04:44.669Z,1.70
2019-04-01T05:05:44.938Z,1.80
2019-04-01T05:06:45.056Z,1.70
2019-04-01T05:07:45.141Z,1.60
2019-04-01T05:08:45.415Z,2.10
2019-04-01T05:09:45.498Z,1.90
2019-04-01T05:10:45.576Z,2.10
2019-04-01T05:11:46.245Z,1.90
2019-04-01T05:12:47.671Z,1.70
2019-04-01T05:13:46.938Z,2.20
2019-04-01T05:14:46.965Z,1.90
2019-04-01T05:15:47.701Z,2.10
2019-04-01T05:16:47.738Z,1.90
2019-04-01T05:17:46.623Z,1.80
2019-04-01T05:18:46.886Z,2.00
2019-04-01T05:19:47.110Z,1.80
2019-04-01T05:20:47.189Z,1.90
2019-04-01T05:21:48.356Z,1.90
2019-04-01T05:22:47.420Z,2.10
2019-04-01T05:23:47.601Z,2.10
2019-04-01T05:24:50.039Z,2.00
2019-04-01T05:25:49.055Z,1.90
2019-04-01T05:26:49.122Z,2.00
2019-04-01T05:27:48.161Z,2.00
2019-04-01T05:28:48.285Z,2.00
2019-04-01T05:29:48.493Z,1.90
2019-04-01T05:30:48.595Z,1.90
2019-04-01T05:31:48.738Z,2.40
2019-04-01T05:32:48.893Z,1.70
2019-04-01T05:33:55.502Z,1.80
2019-04-01T05:34:50.484Z,1.90
2019-04-01T05:35:49.396Z,1.90
2019-04-01T05:36:49.549Z,1.70
2019-04-01T05:37:51.106Z,1.70
2019-04-01T05:38:49.870Z,2.60
2019-04-01T05:39:51.500Z,1.80
2019-04-01T05:40:50.251Z,2.00
2019-04-01T05:41:50.364Z,2.30
2019-04-01T05:42:50.604Z,1.90
2019-04-01T05:43:50.816Z,1.80
2019-04-01T05:44:50.879Z,1.80
2019-04-01T05:45:52.908Z,2.10
2019-04-01T05:46:53.667Z,2.10
2019-04-01T05:47:51.743Z,1.80
2019-04-01T05:48:54.066Z,1.60
2019-04-01T05:49:53.355Z,1.80
2019-04-01T05:50:51.913Z,2.00
2019-04-01T05:51:52.148Z,1.80
2019-04-01T05:52:52.226Z,1.80
2019-04-01T05:53:52.338Z,1.60
2019-04-01T05:54:52.528Z,1.80
2019-04-01T05:55:52.753Z,1.70
2019-04-01T05:56:52.925Z,2.10
2019-04-01T05:57:53.109Z,1.90
2019-04-01T05:58:53.350Z,2.50
2019-04-01T05:59:53.374Z,2.10
2019-04-01T06:00:53.532Z,1.90
2019-04-01T06:01:53.697Z,2.00
2019-04-01T06:02:53.887Z,1.60
2019-04-01T06:03:54.048Z,1.80
2019-04-01T06:04:54.266Z,1.90
2019-04-01T06:05:54.351Z,1.70
2019-04-01T06:06:54.520Z,1.70
2019-04-01T06:07:54.681Z,1.80
2019-04-01T06:08:54.861Z,1.50
2019-04-01T06:09:54.931Z,1.70
2019-04-01T06:10:55.141Z,2.00
2019-04-01T06:11:55.301Z,2.60
2019-04-01T06:12:55.391Z,1.90
2019-04-01T06:13:55.593Z,1.60
2019-04-01T06:14:55.771Z,2.00
2019-04-01T06:15:55.970Z,1.90
2019-04-01T06:16:56.169Z,1.60
2019-04-01T06:17:56.269Z,1.80
2019-04-01T06:18:56.616Z,1.70
2019-04-01T06:19:56.694Z,1.60
2019-04-01T06:20:56.787Z,2.10
2019-04-01T06:21:56.903Z,2.20
2019-04-01T06:22:56.983Z,2.10
2019-04-01T06:23:57.176Z,1.80
2019-04-01T06:24:57.419Z,1.90
2019-04-01T06:25:57.637Z,2.00
2019-04-01T06:26:57.663Z,1.70
2019-04-01T06:27:57.856Z,1.60
2019-04-01T06:28:57.995Z,1.70
2019-04-01T06:29:59.399Z,1.90
2019-04-01T06:30:58.338Z,1.60
2019-04-01T06:31:58.508Z,1.80
2019-04-01T06:32:58.662Z,1.90
2019-04-01T06:33:58.852Z,1.90
2019-04-01T06:34:58.910Z,1.90
2019-04-01T06:35:59.315Z,1.70
2019-04-01T06:36:59.267Z,2.00
2019-04-01T06:37:59.645Z,1.70
2019-04-01T06:38:59.874Z,1.70
2019-04-01T06:39:59.915Z,1.60
2019-04-01T06:41:00.177Z,1.70
2019-04-01T06:42:00.431Z,1.80
2019-04-01T06:43:00.625Z,1.80
2019-04-01T06:44:00.703Z,1.60
2019-04-01T06:45:00.946Z,1.70
2019-04-01T06:46:01.061Z,1.70
2019-04-01T06:47:01.245Z,1.90
2019-04-01T06:48:01.387Z,1.60
2019-04-01T06:49:02.930Z,1.60
2019-04-01T06:50:01.738Z,1.90
2019-04-01T06:51:02.082Z,2.00
2019-04-01T06:52:02.097Z,1.90
2019-04-01T06:53:02.202Z,1.90
2019-04-01T06:54:02.419Z,1.90
2019-04-01T06:55:02.533Z,1.80
2019-04-01T06:56:02.611Z,1.80
2019-04-01T06:57:03.351Z,1.90
2019-04-01T06:58:03.535Z,1.70
2019-04-01T06:59:03.133Z,2.00
2019-04-01T07:00:03.617Z,2.20
2019-04-01T07:01:03.811Z,1.70
2019-04-01T07:02:03.855Z,1.60
2019-04-01T07:03:03.944Z,1.90
2019-04-01T07:04:04.137Z,1.60
2019-04-01T07:05:04.303Z,2.00
2019-04-01T07:06:04.497Z,1.70
2019-04-01T07:07:17.776Z,1.50
2019-04-01T07:08:04.851Z,2.00
2019-04-01T07:09:06.418Z,1.70
2019-04-01T07:10:05.692Z,1.90
2019-04-01T07:11:05.353Z,1.80
2019-04-01T07:12:06.527Z,2.10
2019-04-01T07:13:05.661Z,1.90
2019-04-01T07:14:06.626Z,1.60
2019-04-01T07:15:06.191Z,1.90
2019-04-01T07:16:15.244Z,1.80
2019-04-01T07:17:06.317Z,1.90
2019-04-01T07:18:06.395Z,1.80
2019-04-01T07:19:06.622Z,2.20
2019-04-01T07:20:08.809Z,1.80
2019-04-01T07:21:06.783Z,1.90
2019-04-01T07:22:07.304Z,1.70
2019-04-01T07:23:07.198Z,2.20
2019-04-01T07:24:07.455Z,1.60
2019-04-01T07:25:07.440Z,1.90
2019-04-01T07:26:07.819Z,1.80
2019-04-01T07:27:08.162Z,1.80
2019-04-01T07:28:08.029Z,1.70
2019-04-01T07:29:07.962Z,1.90
2019-04-01T07:30:08.091Z,1.80
2019-04-01T07:31:08.187Z,1.70
2019-04-01T07:32:08.449Z,1.80
2019-04-01T07:33:08.606Z,1.90
2019-04-01T07:34:09.453Z,1.80
2019-04-01T07:35:08.903Z,1.80
2019-04-01T07:36:09.157Z,1.80
2019-04-01T07:37:10.146Z,1.80
2019-04-01T07:38:09.424Z,1.80
2019-04-01T07:39:09.554Z,2.20
2019-04-01T07:40:09.787Z,1.90
2019-04-01T07:41:09.889Z,1.90
2019-04-01T07:42:10.061Z,1.90
2019-04-01T07:43:10.161Z,1.80
2019-04-01T07:44:11.879Z,2.10
2019-04-01T07:45:10.526Z,2.00
2019-04-01T07:46:10.645Z,1.80
2019-04-01T07:47:10.822Z,2.00
2019-04-01T07:48:12.566Z,2.00
2019-04-01T07:49:11.389Z,1.90
2019-04-01T07:50:12.473Z,2.30
2019-04-01T07:51:11.761Z,1.80
2019-04-01T07:52:11.696Z,1.80
2019-04-01T07:53:11.937Z,1.90
2019-04-01T07:54:12.100Z,1.80
2019-04-01T07:55:12.277Z,2.20
2019-04-01T07:56:12.483Z,1.70
2019-04-01T07:57:12.666Z,2.00
2019-04-01T07:58:12.836Z,1.60
2019-04-01T07:59:13.021Z,1.90
2019-04-01T08:00:13.225Z,2.00
2019-04-01T08:01:13.796Z,1.80
2019-04-01T08:02:13.649Z,1.90
2019-04-01T08:03:13.976Z,1.60
2019-04-01T08:04:13.871Z,2.00
2019-04-01T08:05:14.192Z,2.30
2019-04-01T08:06:14.237Z,1.70
2019-04-01T08:07:14.370Z,2.10
2019-04-01T08:08:14.511Z,2.20
2019-04-01T08:09:14.691Z,2.10
2019-04-01T08:10:14.849Z,2.10
2019-04-01T08:11:15.025Z,2.10
2019-04-01T08:12:15.217Z,2.10
2019-04-01T08:13:15.534Z,1.90
2019-04-01T08:14:15.472Z,1.80
2019-04-01T08:15:15.695Z,2.00
2019-04-01T08:16:15.791Z,2.20
2019-04-01T08:17:15.959Z,1.80
2019-04-01T08:18:16.148Z,1.80
2019-04-01T08:19:16.327Z,1.90
2019-04-01T08:20:16.496Z,2.10
2019-04-01T08:21:16.769Z,2.40
2019-04-01T08:22:16.931Z,2.10
2019-04-01T08:23:16.982Z,2.00
2019-04-01T08:24:17.164Z,1.90
2019-04-01T08:25:17.331Z,2.30
2019-04-01T08:26:18.069Z,2.00
2019-04-01T08:27:17.599Z,2.00
2019-04-01T08:28:17.772Z,2.70
2019-04-01T08:29:29.540Z,2.10
2019-04-01T08:30:18.111Z,2.00
2019-04-01T08:31:18.290Z,2.00
2019-04-01T08:32:18.870Z,1.80
2019-04-01T08:33:18.738Z,2.00
2019-04-01T08:34:18.847Z,2.00
2019-04-01T08:35:19.926Z,1.90
2019-04-01T08:36:19.294Z,1.80
2019-04-01T08:37:19.290Z,2.20
2019-04-01T08:38:19.499Z,2.10
2019-04-01T08:39:19.662Z,2.00
2019-04-01T08:40:19.831Z,2.10
2019-04-01T08:41:20.022Z,2.10
2019-04-01T08:42:20.234Z,2.00
2019-04-01T08:43:20.212Z,2.00
2019-04-01T08:44:20.460Z,2.30
2019-04-01T08:45:20.599Z,2.00
2019-04-01T08:46:21.629Z,1.90
2019-04-01T08:47:21.006Z,1.90
2019-04-01T08:48:21.263Z,1.70
2019-04-01T08:49:21.444Z,2.10
2019-04-01T08:50:21.599Z,1.90
2019-04-01T08:51:21.847Z,2.70
2019-04-01T08:52:21.965Z,2.00
2019-04-01T08:53:22.143Z,1.80
2019-04-01T08:54:22.320Z,2.00
2019-04-01T08:55:22.761Z,1.90
2019-04-01T08:56:23.539Z,2.20
2019-04-01T08:57:22.788Z,1.80
2019-04-01T08:58:23.183Z,2.10
2019-04-01T08:59:23.080Z,2.20
2019-04-01T09:00:23.141Z,2.10
2019-04-01T09:01:34.617Z,2.00
2019-04-01T09:02:23.587Z,2.30
2019-04-01T09:03:23.968Z,2.60
2019-04-01T09:04:24.270Z,2.50
2019-04-01T09:05:24.057Z,2.50
2019-04-01T09:06:25.278Z,2.50
2019-04-01T09:07:29.607Z,2.40
2019-04-01T09:08:24.628Z,2.40
2019-04-01T09:09:24.714Z,2.00
2019-04-01T09:10:25.218Z,2.70
2019-04-01T09:11:25.585Z,2.20
2019-04-01T09:12:25.300Z,2.70
2019-04-01T09:13:32.638Z,2.40
2019-04-01T09:14:26.285Z,2.60
2019-04-01T09:15:25.560Z,2.40
2019-04-01T09:16:26.028Z,2.10
2019-04-01T09:17:26.204Z,2.50
2019-04-01T09:18:27.380Z,2.30
2019-04-01T09:19:28.258Z,2.40
2019-04-01T09:20:28.000Z,2.50
2019-04-01T09:21:27.913Z,2.60
2019-04-01T09:22:26.973Z,2.20
2019-04-01T09:23:27.206Z,2.30
2019-04-01T09:24:27.653Z,2.30
2019-04-01T09:25:27.732Z,2.20
2019-04-01T09:26:27.754Z,2.20
2019-04-01T09:27:28.124Z,2.10
2019-04-01T09:28:27.831Z,2.30
2019-04-01T09:29:28.012Z,2.70
2019-04-01T09:30:28.188Z,2.20
2019-04-01T09:31:28.535Z,2.60
2019-04-01T09:32:28.702Z,2.50
2019-04-01T09:33:28.823Z,2.20
2019-04-01T09:34:29.243Z,2.10
2019-04-01T09:35:29.165Z,2.50
2019-04-01T09:36:29.313Z,2.20
2019-04-01T09:37:29.496Z,2.40
2019-04-01T09:38:29.580Z,2.50
2019-04-01T09:39:29.697Z,2.40
2019-04-01T09:40:30.046Z,2.40
2019-04-01T09:41:30.988Z,2.40
2019-04-01T09:42:30.308Z,2.40
2019-04-01T09:43:31.388Z,2.30
2019-04-01T09:44:36.933Z,2.20
2019-04-01T09:45:30.845Z,2.40
2019-04-01T09:46:30.986Z,2.40
2019-04-01T09:47:31.202Z,2.20
2019-04-01T09:48:31.387Z,2.30
2019-04-01T09:49:31.552Z,2.20
2019-04-01T09:50:31.792Z,2.50
2019-04-01T09:51:31.886Z,2.40
2019-04-01T09:52:32.126Z,2.20
2019-04-01T09:53:32.309Z,2.60
2019-04-01T09:54:32.515Z,2.20
2019-04-01T09:55:32.666Z,2.60
2019-04-01T09:56:32.748Z,2.60
2019-04-01T09:57:33.116Z,2.60
2019-04-01T09:58:33.196Z,2.60
2019-04-01T09:59:33.467Z,2.40
2019-04-01T10:00:33.620Z,2.30
2019-04-01T10:01:33.585Z,2.20
2019-04-01T10:02:33.779Z,2.50
2019-04-01T10:03:34.015Z,2.60
2019-04-01T10:04:34.202Z,2.20
2019-04-01T10:05:34.382Z,2.50
2019-04-01T10:06:34.501Z,2.30
2019-04-01T10:07:34.594Z,2.50
2019-04-01T10:08:42.045Z,2.50
2019-04-01T10:09:34.853Z,2.60
2019-04-01T10:10:35.037Z,2.40
2019-04-01T10:11:35.658Z,2.70
2019-04-01T10:12:35.878Z,2.30
2019-04-01T10:13:35.954Z,2.10
2019-04-01T10:14:36.089Z,2.40
2019-04-01T10:15:36.176Z,2.30
2019-04-01T10:16:36.328Z,2.70
2019-04-01T10:17:37.980Z,2.70
2019-04-01T10:18:38.483Z,2.70
2019-04-01T10:19:36.927Z,2.30
2019-04-01T10:20:37.170Z,2.40
2019-04-01T10:21:37.311Z,2.40
2019-04-01T10:22:37.438Z,2.50
2019-04-01T10:23:37.576Z,2.40
2019-04-01T10:24:37.888Z,2.50
2019-04-01T10:25:37.874Z,2.60
2019-04-01T10:26:38.238Z,2.50
2019-04-01T10:27:38.511Z,2.70
2019-04-01T10:28:38.541Z,2.50
2019-04-01T10:29:38.733Z,2.20
2019-04-01T10:30:38.896Z,2.30
2019-04-01T10:31:39.225Z,2.20
2019-04-01T10:32:39.408Z,2.70
2019-04-01T10:33:39.799Z,2.30
2019-04-01T10:34:39.634Z,2.40
2019-04-01T10:35:39.962Z,2.60
2019-04-01T10:36:40.155Z,2.50
2019-04-01T10:37:43.922Z,2.60
2019-04-01T10:38:42.363Z,2.30
2019-04-01T10:39:40.882Z,2.60
2019-04-01T10:40:40.929Z,2.70
2019-04-01T10:41:40.960Z,2.60
2019-04-01T10:42:41.108Z,2.30
2019-04-01T10:43:44.633Z,2.20
2019-04-01T10:44:41.500Z,2.70
2019-04-01T10:45:41.613Z,2.60
2019-04-01T10:46:42.020Z,2.80
2019-04-01T10:47:42.091Z,2.80
2019-04-01T10:48:42.082Z,2.50
2019-04-01T10:49:42.280Z,2.50
2019-04-01T10:50:42.814Z,2.60
2019-04-01T10:51:42.737Z,2.70
2019-04-01T10:52:44.178Z,2.70
2019-04-01T10:53:42.884Z,2.80
2019-04-01T10:54:43.943Z,2.30
2019-04-01T10:55:45.178Z,2.60
2019-04-01T10:56:43.654Z,2.80
2019-04-01T10:57:43.944Z,2.70
2019-04-01T10:58:43.601Z,2.80
2019-04-01T10:59:43.657Z,2.80
2019-04-01T11:00:43.812Z,2.40
2019-04-01T11:01:44.064Z,2.70
2019-04-01T11:02:44.142Z,2.70
2019-04-01T11:03:44.423Z,2.60
2019-04-01T11:04:44.740Z,2.60
2019-04-01T11:05:44.773Z,2.90
2019-04-01T11:06:44.890Z,2.90
2019-04-01T11:07:45.006Z,2.90
2019-04-01T11:08:45.289Z,2.70
2019-04-01T11:09:45.342Z,2.70
2019-04-01T11:10:45.597Z,3.00
2019-04-01T11:11:45.744Z,2.90
2019-04-01T11:12:45.943Z,2.80
2019-04-01T11:13:46.047Z,2.90
2019-04-01T11:14:46.631Z,2.90
2019-04-01T11:15:46.603Z,3.10
2019-04-01T11:16:46.765Z,2.70
2019-04-01T11:17:46.899Z,2.80
2019-04-01T11:18:46.991Z,3.00
2019-04-01T11:19:47.239Z,2.50
2019-04-01T11:20:47.282Z,3.00
2019-04-01T11:21:47.464Z,3.00
2019-04-01T11:22:47.647Z,3.00
2019-04-01T11:23:47.805Z,2.80
2019-04-01T11:24:48.042Z,3.00
2019-04-01T11:25:48.189Z,3.00
2019-04-01T11:26:48.378Z,2.70
2019-04-01T11:27:48.500Z,2.70
2019-04-01T11:28:48.746Z,3.00
2019-04-01T11:29:48.847Z,2.70
2019-04-01T11:30:49.362Z,2.80
2019-04-01T11:31:50.094Z,3.00
2019-04-01T11:32:49.825Z,3.00
2019-04-01T11:33:49.727Z,2.80
2019-04-01T11:34:49.966Z,3.00
2019-04-01T11:35:50.106Z,2.70
2019-04-01T11:36:50.232Z,2.90
2019-04-01T11:37:50.504Z,2.80
2019-04-01T11:38:50.664Z,2.90
2019-04-01T11:39:50.938Z,2.90
2019-04-01T11:40:50.986Z,2.90
2019-04-01T11:41:51.210Z,2.90
2019-04-01T11:42:52.894Z,2.90
2019-04-01T11:43:52.491Z,3.00
2019-04-01T11:44:52.628Z,3.10
2019-04-01T11:45:53.227Z,2.80
2019-04-01T11:46:53.397Z,2.90
2019-04-01T11:47:52.329Z,2.90
2019-04-01T11:48:52.558Z,2.80
2019-04-01T11:49:52.696Z,2.80
2019-04-01T11:50:53.810Z,2.80
2019-04-01T11:51:53.011Z,2.80
2019-04-01T11:52:53.290Z,3.00
2019-04-01T11:53:53.422Z,2.90
2019-04-01T11:54:53.577Z,2.70
2019-04-01T11:55:53.737Z,3.00
2019-04-01T11:56:53.910Z,2.80
2019-04-01T11:57:57.051Z,2.90
2019-04-01T11:58:56.738Z,3.10
2019-04-01T11:59:55.004Z,3.10
2019-04-01T12:00:54.742Z,3.50
2019-04-01T12:01:55.033Z,2.90
2019-04-01T12:02:55.242Z,3.00
2019-04-01T12:03:55.357Z,3.20
2019-04-01T12:04:55.589Z,3.30
2019-04-01T12:05:55.775Z,2.90
2019-04-01T12:06:57.000Z,3.20
2019-04-01T12:07:57.888Z,3.30
2019-04-01T12:08:56.166Z,3.10
2019-04-01T12:09:56.344Z,3.00
2019-04-01T12:10:56.801Z,3.20
2019-04-01T12:11:56.645Z,3.30
2019-04-01T12:12:56.763Z,3.40
2019-04-01T12:13:57.084Z,3.20
2019-04-01T12:14:57.193Z,3.20
2019-04-01T12:15:57.325Z,3.30
2019-04-01T12:16:57.628Z,3.60
2019-04-01T12:17:57.970Z,3.70
2019-04-01T12:18:57.913Z,3.00
2019-04-01T12:19:58.147Z,2.70
2019-04-01T12:20:58.200Z,3.70
2019-04-01T12:21:58.238Z,3.30
2019-04-01T12:22:59.620Z,3.10
2019-04-01T12:23:58.513Z,3.50
2019-04-01T12:24:58.611Z,3.30
2019-04-01T12:26:08.462Z,3.80
2019-04-01T12:26:58.959Z,3.10
2019-04-01T12:27:59.186Z,3.50
2019-04-01T12:28:59.316Z,3.70
2019-04-01T12:29:59.538Z,3.30
2019-04-01T12:30:59.623Z,3.80
2019-04-01T12:31:59.920Z,3.60
2019-04-01T12:32:59.858Z,3.60
2019-04-01T12:33:59.999Z,3.50
2019-04-01T12:35:00.487Z,3.40
2019-04-01T12:36:00.339Z,3.60
2019-04-01T12:37:00.419Z,3.10
2019-04-01T12:38:00.598Z,3.70
2019-04-01T12:39:00.804Z,4.10
2019-04-01T12:40:01.023Z,3.90
2019-04-01T12:41:01.099Z,3.20
2019-04-01T12:42:01.359Z,3.80
2019-04-01T12:43:01.368Z,3.60
2019-04-01T12:44:01.533Z,3.90
2019-04-01T12:45:01.754Z,3.80
2019-04-01T12:46:02.030Z,3.90
2019-04-01T12:47:02.077Z,3.70
2019-04-01T12:48:02.288Z,3.80
2019-04-01T12:49:02.453Z,4.10
2019-04-01T12:50:02.607Z,3.60
2019-04-01T12:51:02.813Z,3.70
2019-04-01T12:52:02.962Z,3.50
2019-04-01T12:53:03.185Z,3.60
2019-04-01T12:54:03.355Z,3.90
2019-04-01T12:55:03.486Z,4.00
2019-04-01T12:56:03.688Z,3.30
2019-04-01T12:57:03.825Z,3.40
2019-04-01T12:58:03.988Z,3.80
2019-04-01T12:59:04.319Z,3.40
2019-04-01T13:00:04.324Z,4.20
2019-04-01T13:01:04.487Z,3.70
2019-04-01T13:02:04.630Z,3.90
2019-04-01T13:03:04.794Z,3.70
2019-04-01T13:04:05.770Z,3.70
2019-04-01T13:05:05.202Z,3.60
2019-04-01T13:06:05.365Z,4.10
2019-04-01T13:07:05.530Z,3.60
2019-04-01T13:08:05.593Z,3.80
2019-04-01T13:09:06.093Z,3.60
2019-04-01T13:10:06.238Z,4.00
2019-04-01T13:11:06.295Z,3.60
2019-04-01T13:12:06.308Z,3.80
2019-04-01T13:13:06.564Z,3.60
2019-04-01T13:14:06.560Z,3.50
2019-04-01T13:15:06.720Z,3.80
2019-04-01T13:16:09.023Z,3.80
2019-04-01T13:17:07.040Z,3.70
2019-04-01T13:18:07.222Z,3.40
2019-04-01T13:19:07.341Z,3.70
2019-04-01T13:20:07.499Z,3.60
2019-04-01T13:21:07.698Z,3.80